sensor_id;sensor_type;location;lat;lon;timestamp;pressure;altitude;pressure_sealevel;temperature;humidity
50710;BME280;37033;49.994;21.992;2023-07-31T00:01:14;98793.53;;;17.89;81.43
50710;BME280;37033;49.994;21.992;2023-07-31T00:03:45;98796.55;;;17.87;81.43
50710;BME280;37033;49.994;21.992;2023-07-31T00:06:16;98800.87;;;17.85;81.40
50710;BME280;37033;49.994;21.992;2023-07-31T00:08:46;98797.42;;;17.84;81.65
50710;BME280;37033;49.994;21.992;2023-07-31T00:11:17;98792.04;;;17.83;81.72
50710;BME280;37033;49.994;21.992;2023-07-31T00:13:48;98794.83;;;17.81;81.79
50710;BME280;37033;49.994;21.992;2023-07-31T00:16:18;98793.48;;;17.79;81.87
50710;BME280;37033;49.994;21.992;2023-07-31T00:18:50;98787.20;;;17.76;81.95
50710;BME280;37033;49.994;21.992;2023-07-31T00:21:21;98783.29;;;17.74;81.78
50710;BME280;37033;49.994;21.992;2023-07-31T00:23:51;98781.58;;;17.72;81.98
50710;BME280;37033;49.994;21.992;2023-07-31T00:26:22;98782.08;;;17.68;82.18
50710;BME280;37033;49.994;21.992;2023-07-31T00:28:53;98780.02;;;17.64;82.21
50710;BME280;37033;49.994;21.992;2023-07-31T00:31:24;98787.83;;;17.61;82.16
50710;BME280;37033;49.994;21.992;2023-07-31T00:33:54;98789.55;;;17.59;82.09
50710;BME280;37033;49.994;21.992;2023-07-31T00:36:25;98792.40;;;17.56;82.19
50710;BME280;37033;49.994;21.992;2023-07-31T00:38:56;98789.89;;;17.55;82.16
50710;BME280;37033;49.994;21.992;2023-07-31T00:41:27;98790.98;;;17.53;82.26
50710;BME280;37033;49.994;21.992;2023-07-31T00:43:58;98789.09;;;17.51;82.28
50710;BME280;37033;49.994;21.992;2023-07-31T00:46:29;98786.64;;;17.47;82.31
50710;BME280;37033;49.994;21.992;2023-07-31T00:49:00;98787.66;;;17.42;82.56
50710;BME280;37033;49.994;21.992;2023-07-31T00:51:32;98790.15;;;17.37;82.50
50710;BME280;37033;49.994;21.992;2023-07-31T00:54:04;98790.10;;;17.34;82.52
50710;BME280;37033;49.994;21.992;2023-07-31T00:56:35;98787.63;;;17.30;82.70
50710;BME280;37033;49.994;21.992;2023-07-31T00:59:06;98785.42;;;17.28;82.83
50710;BME280;37033;49.994;21.992;2023-07-31T01:01:37;98784.92;;;17.26;82.78
50710;BME280;37033;49.994;21.992;2023-07-31T01:04:09;98784.66;;;17.24;82.89
50710;BME280;37033;49.994;21.992;2023-07-31T01:06:46;98782.06;;;17.22;82.87
50710;BME280;37033;49.994;21.992;2023-07-31T01:09:32;98784.95;;;17.21;82.97
50710;BME280;37033;49.994;21.992;2023-07-31T01:12:09;98783.65;;;17.19;82.95
50710;BME280;37033;49.994;21.992;2023-07-31T01:14:52;98783.62;;;17.17;82.97
50710;BME280;37033;49.994;21.992;2023-07-31T01:17:32;98783.82;;;17.15;82.97
50710;BME280;37033;49.994;21.992;2023-07-31T01:20:07;98778.35;;;17.13;83.02
50710;BME280;37033;49.994;21.992;2023-07-31T01:23:21;98778.63;;;17.11;82.87
50710;BME280;37033;49.994;21.992;2023-07-31T01:26:11;98779.07;;;17.07;82.74
50710;BME280;37033;49.994;21.992;2023-07-31T01:28:50;98780.36;;;17.05;82.85
50710;BME280;37033;49.994;21.992;2023-07-31T01:31:24;98784.52;;;17.02;82.73
50710;BME280;37033;49.994;21.992;2023-07-31T01:33:59;98785.16;;;17.00;82.92
50710;BME280;37033;49.994;21.992;2023-07-31T01:36:31;98785.20;;;16.97;82.89
50710;BME280;37033;49.994;21.992;2023-07-31T01:39:02;98782.62;;;16.94;82.99
50710;BME280;37033;49.994;21.992;2023-07-31T01:41:33;98780.59;;;16.91;82.93
50710;BME280;37033;49.994;21.992;2023-07-31T01:44:05;98779.42;;;16.87;83.20
50710;BME280;37033;49.994;21.992;2023-07-31T01:46:36;98787.77;;;16.84;83.15
50710;BME280;37033;49.994;21.992;2023-07-31T01:49:07;98786.60;;;16.80;83.44
50710;BME280;37033;49.994;21.992;2023-07-31T01:51:37;98792.55;;;16.77;83.58
50710;BME280;37033;49.994;21.992;2023-07-31T01:54:08;98792.80;;;16.75;83.66
50710;BME280;37033;49.994;21.992;2023-07-31T01:56:38;98799.76;;;16.72;83.92
50710;BME280;37033;49.994;21.992;2023-07-31T01:59:09;98799.54;;;16.70;83.86
50710;BME280;37033;49.994;21.992;2023-07-31T02:01:40;98793.55;;;16.65;83.95
50710;BME280;37033;49.994;21.992;2023-07-31T02:04:10;98795.34;;;16.59;83.99
50710;BME280;37033;49.994;21.992;2023-07-31T02:06:41;98794.61;;;16.56;84.05
50710;BME280;37033;49.994;21.992;2023-07-31T02:09:12;98794.22;;;16.53;84.03
50710;BME280;37033;49.994;21.992;2023-07-31T02:11:43;98796.05;;;16.51;84.19
50710;BME280;37033;49.994;21.992;2023-07-31T02:14:13;98795.07;;;16.48;84.23
50710;BME280;37033;49.994;21.992;2023-07-31T02:16:44;98794.18;;;16.45;84.02
50710;BME280;37033;49.994;21.992;2023-07-31T02:19:14;98791.37;;;16.41;84.14
50710;BME280;37033;49.994;21.992;2023-07-31T02:21:45;98798.59;;;16.37;84.06
50710;BME280;37033;49.994;21.992;2023-07-31T02:24:16;98798.42;;;16.34;84.10
50710;BME280;37033;49.994;21.992;2023-07-31T02:26:46;98799.83;;;16.30;84.15
50710;BME280;37033;49.994;21.992;2023-07-31T02:29:17;98804.61;;;16.26;84.04
50710;BME280;37033;49.994;21.992;2023-07-31T02:31:48;98800.81;;;16.22;83.97
50710;BME280;37033;49.994;21.992;2023-07-31T02:34:18;98800.21;;;16.17;83.98
50710;BME280;37033;49.994;21.992;2023-07-31T02:36:49;98807.31;;;16.11;83.87
50710;BME280;37033;49.994;21.992;2023-07-31T02:39:20;98809.97;;;16.04;83.83
50710;BME280;37033;49.994;21.992;2023-07-31T02:41:51;98812.81;;;15.99;83.95
50710;BME280;37033;49.994;21.992;2023-07-31T02:44:21;98811.77;;;15.94;84.02
50710;BME280;37033;49.994;21.992;2023-07-31T02:46:52;98812.20;;;15.90;84.07
50710;BME280;37033;49.994;21.992;2023-07-31T02:49:23;98813.29;;;15.86;84.03
50710;BME280;37033;49.994;21.992;2023-07-31T02:51:53;98813.86;;;15.84;83.90
50710;BME280;37033;49.994;21.992;2023-07-31T02:54:24;98811.41;;;15.82;83.99
50710;BME280;37033;49.994;21.992;2023-07-31T02:56:54;98815.13;;;15.78;84.06
50710;BME280;37033;49.994;21.992;2023-07-31T02:59:25;98815.27;;;15.76;83.90
50710;BME280;37033;49.994;21.992;2023-07-31T03:01:56;98814.08;;;15.73;83.93
50710;BME280;37033;49.994;21.992;2023-07-31T03:04:27;98815.61;;;15.71;84.15
50710;BME280;37033;49.994;21.992;2023-07-31T03:06:57;98812.35;;;15.69;84.17
50710;BME280;37033;49.994;21.992;2023-07-31T03:09:28;98817.25;;;15.66;84.31
50710;BME280;37033;49.994;21.992;2023-07-31T03:11:58;98818.84;;;15.64;84.51
50710;BME280;37033;49.994;21.992;2023-07-31T03:14:29;98817.97;;;15.64;84.70
50710;BME280;37033;49.994;21.992;2023-07-31T03:17:00;98817.04;;;15.64;84.90
50710;BME280;37033;49.994;21.992;2023-07-31T03:19:32;98815.72;;;15.64;84.95
50710;BME280;37033;49.994;21.992;2023-07-31T03:22:04;98811.60;;;15.65;85.19
50710;BME280;37033;49.994;21.992;2023-07-31T03:24:35;98811.88;;;15.66;85.21
50710;BME280;37033;49.994;21.992;2023-07-31T03:27:07;98813.52;;;15.66;85.50
50710;BME280;37033;49.994;21.992;2023-07-31T03:29:37;98813.08;;;15.66;85.39
50710;BME280;37033;49.994;21.992;2023-07-31T03:32:08;98814.99;;;15.66;85.55
50710;BME280;37033;49.994;21.992;2023-07-31T03:34:39;98819.23;;;15.64;85.74
50710;BME280;37033;49.994;21.992;2023-07-31T03:37:10;98817.14;;;15.61;85.79
50710;BME280;37033;49.994;21.992;2023-07-31T03:39:40;98818.59;;;15.56;85.76
50710;BME280;37033;49.994;21.992;2023-07-31T03:42:11;98823.48;;;15.54;85.91
50710;BME280;37033;49.994;21.992;2023-07-31T03:44:42;98828.10;;;15.53;86.16
50710;BME280;37033;49.994;21.992;2023-07-31T03:47:12;98828.59;;;15.53;86.11
50710;BME280;37033;49.994;21.992;2023-07-31T03:49:43;98829.62;;;15.54;86.50
50710;BME280;37033;49.994;21.992;2023-07-31T03:52:14;98829.67;;;15.54;86.50
50710;BME280;37033;49.994;21.992;2023-07-31T03:54:44;98838.76;;;15.56;86.62
50710;BME280;37033;49.994;21.992;2023-07-31T03:57:15;98833.75;;;15.59;86.61
50710;BME280;37033;49.994;21.992;2023-07-31T03:59:46;98831.34;;;15.64;86.79
50710;BME280;37033;49.994;21.992;2023-07-31T04:02:16;98830.44;;;15.68;86.84
50710;BME280;37033;49.994;21.992;2023-07-31T04:04:48;98830.62;;;15.71;86.90
50710;BME280;37033;49.994;21.992;2023-07-31T04:07:18;98832.09;;;15.75;86.96
50710;BME280;37033;49.994;21.992;2023-07-31T04:09:49;98831.61;;;15.79;87.32
50710;BME280;37033;49.994;21.992;2023-07-31T04:12:20;98833.76;;;15.83;87.34
50710;BME280;37033;49.994;21.992;2023-07-31T04:14:51;98835.36;;;15.87;87.47
50710;BME280;37033;49.994;21.992;2023-07-31T04:17:21;98838.95;;;15.90;87.52
50710;BME280;37033;49.994;21.992;2023-07-31T04:19:52;98837.82;;;15.94;87.55
50710;BME280;37033;49.994;21.992;2023-07-31T04:22:23;98842.34;;;15.98;87.53
50710;BME280;37033;49.994;21.992;2023-07-31T04:24:54;98841.79;;;16.02;87.60
50710;BME280;37033;49.994;21.992;2023-07-31T04:27:24;98843.65;;;16.06;87.63
50710;BME280;37033;49.994;21.992;2023-07-31T04:29:55;98842.67;;;16.12;87.63
50710;BME280;37033;49.994;21.992;2023-07-31T04:32:26;98841.19;;;16.15;87.71
50710;BME280;37033;49.994;21.992;2023-07-31T04:34:56;98844.02;;;16.23;87.87
50710;BME280;37033;49.994;21.992;2023-07-31T04:37:27;98845.27;;;16.32;88.18
50710;BME280;37033;49.994;21.992;2023-07-31T04:39:58;98848.61;;;16.43;88.31
50710;BME280;37033;49.994;21.992;2023-07-31T04:42:32;98845.67;;;16.54;88.37
50710;BME280;37033;49.994;21.992;2023-07-31T04:45:05;98847.66;;;16.69;88.59
50710;BME280;37033;49.994;21.992;2023-07-31T04:47:36;98848.27;;;16.83;88.76
50710;BME280;37033;49.994;21.992;2023-07-31T04:50:09;98849.79;;;16.97;88.73
50710;BME280;37033;49.994;21.992;2023-07-31T04:52:39;98852.21;;;17.11;88.89
50710;BME280;37033;49.994;21.992;2023-07-31T04:55:10;98854.25;;;17.25;88.64
50710;BME280;37033;49.994;21.992;2023-07-31T04:57:41;98854.91;;;17.39;88.66
50710;BME280;37033;49.994;21.992;2023-07-31T05:00:13;98856.34;;;17.53;88.39
50710;BME280;37033;49.994;21.992;2023-07-31T05:02:44;98856.16;;;17.70;88.52
50710;BME280;37033;49.994;21.992;2023-07-31T05:05:15;98855.54;;;17.87;88.63
50710;BME280;37033;49.994;21.992;2023-07-31T05:07:45;98857.58;;;18.00;87.91
50710;BME280;37033;49.994;21.992;2023-07-31T05:10:17;98858.59;;;18.11;87.44
50710;BME280;37033;49.994;21.992;2023-07-31T05:12:47;98864.11;;;18.23;87.23
50710;BME280;37033;49.994;21.992;2023-07-31T05:15:18;98865.95;;;18.35;86.99
50710;BME280;37033;49.994;21.992;2023-07-31T05:17:49;98863.67;;;18.45;86.59
50710;BME280;37033;49.994;21.992;2023-07-31T05:20:20;98869.52;;;18.53;86.32
50710;BME280;37033;49.994;21.992;2023-07-31T05:22:51;98874.23;;;18.62;86.08
50710;BME280;37033;49.994;21.992;2023-07-31T05:25:22;98872.14;;;18.67;85.72
50710;BME280;37033;49.994;21.992;2023-07-31T05:27:53;98884.40;;;18.73;85.45
50710;BME280;37033;49.994;21.992;2023-07-31T05:30:23;98881.84;;;18.81;85.49
50710;BME280;37033;49.994;21.992;2023-07-31T05:32:54;98883.20;;;18.90;85.25
50710;BME280;37033;49.994;21.992;2023-07-31T05:35:25;98885.98;;;18.99;85.12
50710;BME280;37033;49.994;21.992;2023-07-31T05:37:55;98885.81;;;19.09;84.56
50710;BME280;37033;49.994;21.992;2023-07-31T05:40:26;98888.30;;;19.14;83.73
50710;BME280;37033;49.994;21.992;2023-07-31T05:42:57;98889.02;;;19.16;83.11
50710;BME280;37033;49.994;21.992;2023-07-31T05:45:28;98892.81;;;19.18;82.58
50710;BME280;37033;49.994;21.992;2023-07-31T05:47:58;98898.86;;;19.19;82.41
50710;BME280;37033;49.994;21.992;2023-07-31T05:50:29;98903.05;;;19.24;82.39
50710;BME280;37033;49.994;21.992;2023-07-31T05:53:00;98901.15;;;19.25;81.84
50710;BME280;37033;49.994;21.992;2023-07-31T05:55:31;98902.23;;;19.21;81.49
50710;BME280;37033;49.994;21.992;2023-07-31T05:58:02;98904.48;;;19.14;81.13
50710;BME280;37033;49.994;21.992;2023-07-31T06:00:32;98906.89;;;19.10;81.20
50710;BME280;37033;49.994;21.992;2023-07-31T06:03:03;98905.85;;;19.09;81.32
50710;BME280;37033;49.994;21.992;2023-07-31T06:05:34;98914.56;;;19.09;81.21
50710;BME280;37033;49.994;21.992;2023-07-31T06:08:05;98909.69;;;19.08;81.01
50710;BME280;37033;49.994;21.992;2023-07-31T06:10:36;98908.98;;;19.12;80.96
50710;BME280;37033;49.994;21.992;2023-07-31T06:13:07;98906.20;;;19.19;80.90
50710;BME280;37033;49.994;21.992;2023-07-31T06:15:41;98905.40;;;19.32;80.80
50710;BME280;37033;49.994;21.992;2023-07-31T06:18:12;98907.63;;;19.47;80.85
50710;BME280;37033;49.994;21.992;2023-07-31T06:20:43;98906.13;;;19.64;80.15
50710;BME280;37033;49.994;21.992;2023-07-31T06:23:14;98901.70;;;19.72;79.94
50710;BME280;37033;49.994;21.992;2023-07-31T06:25:45;98899.46;;;19.80;79.64
50710;BME280;37033;49.994;21.992;2023-07-31T06:28:16;98896.68;;;19.87;79.22
50710;BME280;37033;49.994;21.992;2023-07-31T06:30:47;98900.13;;;19.93;78.63
50710;BME280;37033;49.994;21.992;2023-07-31T06:33:17;98903.42;;;19.96;78.33
50710;BME280;37033;49.994;21.992;2023-07-31T06:35:48;98907.44;;;19.99;77.97
50710;BME280;37033;49.994;21.992;2023-07-31T06:38:21;98905.41;;;20.00;77.88
50710;BME280;37033;49.994;21.992;2023-07-31T06:40:52;98910.30;;;20.03;77.79
50710;BME280;37033;49.994;21.992;2023-07-31T06:43:23;98907.97;;;20.03;77.42
50710;BME280;37033;49.994;21.992;2023-07-31T06:45:54;98908.38;;;20.05;77.57
50710;BME280;37033;49.994;21.992;2023-07-31T06:48:24;98906.35;;;20.10;77.18
50710;BME280;37033;49.994;21.992;2023-07-31T06:50:55;98911.52;;;20.14;76.99
50710;BME280;37033;49.994;21.992;2023-07-31T06:53:26;98913.64;;;20.19;77.02
50710;BME280;37033;49.994;21.992;2023-07-31T06:55:57;98911.02;;;20.26;76.56
50710;BME280;37033;49.994;21.992;2023-07-31T06:58:28;98912.88;;;20.33;76.76
50710;BME280;37033;49.994;21.992;2023-07-31T07:00:58;98914.81;;;20.41;76.41
50710;BME280;37033;49.994;21.992;2023-07-31T07:03:29;98918.35;;;20.47;76.22
50710;BME280;37033;49.994;21.992;2023-07-31T07:06:00;98915.08;;;20.49;76.01
50710;BME280;37033;49.994;21.992;2023-07-31T07:08:31;98914.85;;;20.51;75.88
50710;BME280;37033;49.994;21.992;2023-07-31T07:11:01;98918.59;;;20.52;75.37
50710;BME280;37033;49.994;21.992;2023-07-31T07:13:33;98920.21;;;20.51;75.04
50710;BME280;37033;49.994;21.992;2023-07-31T07:16:04;98921.86;;;20.49;75.07
50710;BME280;37033;49.994;21.992;2023-07-31T07:18:34;98922.52;;;20.50;74.87
50710;BME280;37033;49.994;21.992;2023-07-31T07:21:05;98918.95;;;20.51;75.14
50710;BME280;37033;49.994;21.992;2023-07-31T07:23:36;98923.36;;;20.60;75.05
50710;BME280;37033;49.994;21.992;2023-07-31T07:26:06;98924.42;;;20.65;74.37
50710;BME280;37033;49.994;21.992;2023-07-31T07:28:37;98918.33;;;20.68;73.95
50710;BME280;37033;49.994;21.992;2023-07-31T07:31:08;98919.50;;;20.70;73.85
50710;BME280;37033;49.994;21.992;2023-07-31T07:33:39;98913.59;;;20.70;73.33
50710;BME280;37033;49.994;21.992;2023-07-31T07:36:10;98915.63;;;20.68;73.30
50710;BME280;37033;49.994;21.992;2023-07-31T07:38:42;98914.86;;;20.71;73.32
50710;BME280;37033;49.994;21.992;2023-07-31T07:41:13;98914.73;;;20.74;73.17
50710;BME280;37033;49.994;21.992;2023-07-31T07:43:43;98912.47;;;20.75;73.27
50710;BME280;37033;49.994;21.992;2023-07-31T07:46:14;98913.15;;;20.79;73.27
50710;BME280;37033;49.994;21.992;2023-07-31T07:48:45;98911.39;;;20.85;73.43
50710;BME280;37033;49.994;21.992;2023-07-31T07:51:16;98915.69;;;20.90;73.17
50710;BME280;37033;49.994;21.992;2023-07-31T07:53:46;98918.34;;;20.98;73.36
50710;BME280;37033;49.994;21.992;2023-07-31T07:56:17;98916.73;;;21.06;73.16
50710;BME280;37033;49.994;21.992;2023-07-31T07:58:51;98911.43;;;21.13;73.19
50710;BME280;37033;49.994;21.992;2023-07-31T08:01:22;98912.81;;;21.27;73.22
50710;BME280;37033;49.994;21.992;2023-07-31T08:03:53;98904.83;;;21.48;73.38
50710;BME280;37033;49.994;21.992;2023-07-31T08:06:23;98908.03;;;21.66;72.99
50710;BME280;37033;49.994;21.992;2023-07-31T08:08:54;98907.20;;;21.77;72.56
50710;BME280;37033;49.994;21.992;2023-07-31T08:11:25;98907.60;;;21.88;72.28
50710;BME280;37033;49.994;21.992;2023-07-31T08:13:56;98908.31;;;21.90;71.59
50710;BME280;37033;49.994;21.992;2023-07-31T08:16:27;98908.20;;;21.94;71.70
50710;BME280;37033;49.994;21.992;2023-07-31T08:18:57;98910.54;;;22.02;71.20
50710;BME280;37033;49.994;21.992;2023-07-31T08:21:28;98910.00;;;22.05;71.09
50710;BME280;37033;49.994;21.992;2023-07-31T08:23:59;98911.08;;;22.18;70.33
50710;BME280;37033;49.994;21.992;2023-07-31T08:26:29;98914.27;;;22.22;69.63
50710;BME280;37033;49.994;21.992;2023-07-31T08:29:00;98913.33;;;22.29;69.58
50710;BME280;37033;49.994;21.992;2023-07-31T08:31:31;98916.11;;;22.30;69.32
50710;BME280;37033;49.994;21.992;2023-07-31T08:34:02;98915.11;;;22.30;69.02
50710;BME280;37033;49.994;21.992;2023-07-31T08:36:33;98912.18;;;22.27;68.99
50710;BME280;37033;49.994;21.992;2023-07-31T08:39:04;98917.02;;;22.33;68.90
50710;BME280;37033;49.994;21.992;2023-07-31T08:41:38;98912.71;;;22.35;69.05
50710;BME280;37033;49.994;21.992;2023-07-31T08:44:10;98908.30;;;22.55;69.62
50710;BME280;37033;49.994;21.992;2023-07-31T08:46:41;98915.70;;;22.76;68.38
50710;BME280;37033;49.994;21.992;2023-07-31T08:49:12;98915.73;;;22.80;68.07
50710;BME280;37033;49.994;21.992;2023-07-31T08:51:44;98920.03;;;22.75;67.61
50710;BME280;37033;49.994;21.992;2023-07-31T08:54:17;98920.96;;;22.81;67.42
50710;BME280;37033;49.994;21.992;2023-07-31T08:56:48;98917.08;;;22.92;67.16
50710;BME280;37033;49.994;21.992;2023-07-31T08:59:21;98913.08;;;22.99;66.82
50710;BME280;37033;49.994;21.992;2023-07-31T09:01:55;98915.20;;;23.13;67.02
50710;BME280;37033;49.994;21.992;2023-07-31T09:04:28;98914.19;;;23.36;66.89
50710;BME280;37033;49.994;21.992;2023-07-31T09:07:02;98910.77;;;23.53;66.87
50710;BME280;37033;49.994;21.992;2023-07-31T09:09:34;98903.00;;;23.76;66.00
50710;BME280;37033;49.994;21.992;2023-07-31T09:12:06;98908.02;;;23.94;65.69
50710;BME280;37033;49.994;21.992;2023-07-31T09:14:38;98906.72;;;24.11;64.84
50710;BME280;37033;49.994;21.992;2023-07-31T09:17:09;98907.41;;;24.31;64.45
50710;BME280;37033;49.994;21.992;2023-07-31T09:19:41;98907.36;;;24.56;64.90
50710;BME280;37033;49.994;21.992;2023-07-31T09:22:11;98906.70;;;24.92;64.03
50710;BME280;37033;49.994;21.992;2023-07-31T09:24:42;98909.02;;;25.13;62.76
50710;BME280;37033;49.994;21.992;2023-07-31T09:27:13;98913.50;;;25.14;61.58
50710;BME280;37033;49.994;21.992;2023-07-31T09:29:44;98910.84;;;25.05;61.01
50710;BME280;37033;49.994;21.992;2023-07-31T09:32:18;98919.61;;;24.88;60.23
50710;BME280;37033;49.994;21.992;2023-07-31T09:34:49;98915.68;;;24.70;60.31
50710;BME280;37033;49.994;21.992;2023-07-31T09:37:19;98912.23;;;24.52;60.88
50710;BME280;37033;49.994;21.992;2023-07-31T09:39:50;98915.35;;;24.42;60.49
50710;BME280;37033;49.994;21.992;2023-07-31T09:42:29;98917.08;;;24.27;60.43
50710;BME280;37033;49.994;21.992;2023-07-31T09:45:10;98924.73;;;24.23;60.89
50710;BME280;37033;49.994;21.992;2023-07-31T09:47:47;98927.55;;;24.24;60.21
50710;BME280;37033;49.994;21.992;2023-07-31T09:50:19;98933.14;;;24.20;59.28
50710;BME280;37033;49.994;21.992;2023-07-31T09:52:51;98930.89;;;24.11;58.98
50710;BME280;37033;49.994;21.992;2023-07-31T09:55:23;98928.58;;;23.99;58.74
50710;BME280;37033;49.994;21.992;2023-07-31T09:57:57;98930.09;;;23.95;59.21
50710;BME280;37033;49.994;21.992;2023-07-31T10:00:29;98931.11;;;23.99;59.82
50710;BME280;37033;49.994;21.992;2023-07-31T10:03:02;98926.23;;;24.13;60.05
50710;BME280;37033;49.994;21.992;2023-07-31T10:05:36;98927.74;;;24.21;59.78
50710;BME280;37033;49.994;21.992;2023-07-31T10:08:08;98929.04;;;24.17;59.89
50710;BME280;37033;49.994;21.992;2023-07-31T10:10:42;98924.08;;;24.25;60.48
50710;BME280;37033;49.994;21.992;2023-07-31T10:13:13;98934.27;;;24.47;60.32
50710;BME280;37033;49.994;21.992;2023-07-31T10:15:45;98935.30;;;24.46;59.71
50710;BME280;37033;49.994;21.992;2023-07-31T10:18:16;98935.23;;;24.47;60.07
50710;BME280;37033;49.994;21.992;2023-07-31T10:20:50;98941.45;;;24.59;59.58
50710;BME280;37033;49.994;21.992;2023-07-31T10:23:23;98940.17;;;24.71;58.57
50710;BME280;37033;49.994;21.992;2023-07-31T10:25:55;98938.58;;;24.80;58.53
50710;BME280;37033;49.994;21.992;2023-07-31T10:28:28;98935.79;;;24.90;57.96
50710;BME280;37033;49.994;21.992;2023-07-31T10:31:01;98938.58;;;25.05;57.78
50710;BME280;37033;49.994;21.992;2023-07-31T10:33:32;98931.88;;;25.25;57.16
50710;BME280;37033;49.994;21.992;2023-07-31T10:36:18;98929.64;;;25.34;56.12
50710;BME280;37033;49.994;21.992;2023-07-31T10:38:51;98923.25;;;25.42;56.17
50710;BME280;37033;49.994;21.992;2023-07-31T10:41:29;98923.13;;;25.54;56.18
50710;BME280;37033;49.994;21.992;2023-07-31T10:44:01;98919.80;;;25.71;56.12
50710;BME280;37033;49.994;21.992;2023-07-31T10:46:34;98917.20;;;25.93;56.06
50710;BME280;37033;49.994;21.992;2023-07-31T10:49:04;98907.84;;;26.03;55.10
50710;BME280;37033;49.994;21.992;2023-07-31T10:51:35;98907.86;;;26.16;55.33
50710;BME280;37033;49.994;21.992;2023-07-31T10:54:24;98905.75;;;26.30;55.93
50710;BME280;37033;49.994;21.992;2023-07-31T10:56:54;98906.30;;;26.60;55.02
50710;BME280;37033;49.994;21.992;2023-07-31T10:59:35;98901.77;;;26.58;53.90
50710;BME280;37033;49.994;21.992;2023-07-31T11:02:25;98901.96;;;26.44;53.88
50710;BME280;37033;49.994;21.992;2023-07-31T11:05:10;98900.23;;;26.29;53.18
50710;BME280;37033;49.994;21.992;2023-07-31T11:07:50;98894.98;;;26.17;53.51
50710;BME280;37033;49.994;21.992;2023-07-31T11:10:24;98893.36;;;26.22;53.41
50710;BME280;37033;49.994;21.992;2023-07-31T11:12:55;98894.17;;;26.19;53.49
50710;BME280;37033;49.994;21.992;2023-07-31T11:15:27;98892.23;;;26.12;53.00
50710;BME280;37033;49.994;21.992;2023-07-31T11:17:59;98890.64;;;25.97;53.02
50710;BME280;37033;49.994;21.992;2023-07-31T11:20:31;98886.30;;;25.85;52.98
50710;BME280;37033;49.994;21.992;2023-07-31T11:23:03;98881.59;;;25.81;53.68
50710;BME280;37033;49.994;21.992;2023-07-31T11:25:34;98876.35;;;25.96;53.75
50710;BME280;37033;49.994;21.992;2023-07-31T11:28:09;98881.96;;;26.03;53.11
50710;BME280;37033;49.994;21.992;2023-07-31T11:30:41;98875.48;;;26.08;52.28
50710;BME280;37033;49.994;21.992;2023-07-31T11:33:13;98879.97;;;26.17;52.00
50710;BME280;37033;49.994;21.992;2023-07-31T11:35:45;98877.06;;;26.26;52.21
50710;BME280;37033;49.994;21.992;2023-07-31T11:38:24;98877.61;;;26.34;52.22
50710;BME280;37033;49.994;21.992;2023-07-31T11:40:57;98876.59;;;26.45;52.06
50710;BME280;37033;49.994;21.992;2023-07-31T11:43:28;98876.11;;;26.45;50.90
50710;BME280;37033;49.994;21.992;2023-07-31T11:46:00;98878.73;;;26.38;50.83
50710;BME280;37033;49.994;21.992;2023-07-31T11:48:33;98879.42;;;26.31;49.77
50710;BME280;37033;49.994;21.992;2023-07-31T11:51:07;98874.67;;;26.19;49.98
50710;BME280;37033;49.994;21.992;2023-07-31T11:53:43;98878.50;;;26.16;50.38
50710;BME280;37033;49.994;21.992;2023-07-31T11:56:16;98872.98;;;26.12;50.34
50710;BME280;37033;49.994;21.992;2023-07-31T11:58:49;98869.95;;;26.09;50.33
50710;BME280;37033;49.994;21.992;2023-07-31T12:01:22;98873.36;;;26.05;50.39
50710;BME280;37033;49.994;21.992;2023-07-31T12:03:53;98868.49;;;25.96;50.71
50710;BME280;37033;49.994;21.992;2023-07-31T12:06:33;98871.07;;;25.97;51.52
50710;BME280;37033;49.994;21.992;2023-07-31T12:09:06;98871.00;;;25.95;50.40
50710;BME280;37033;49.994;21.992;2023-07-31T12:11:45;98866.16;;;25.75;50.84
50710;BME280;37033;49.994;21.992;2023-07-31T12:14:26;98861.84;;;25.71;51.18
50710;BME280;37033;49.994;21.992;2023-07-31T12:16:58;98856.48;;;25.79;50.98
50710;BME280;37033;49.994;21.992;2023-07-31T12:19:31;98860.39;;;25.93;51.05
50710;BME280;37033;49.994;21.992;2023-07-31T12:22:02;98854.08;;;26.11;51.45
50710;BME280;37033;49.994;21.992;2023-07-31T12:24:35;98850.35;;;26.27;51.20
50710;BME280;37033;49.994;21.992;2023-07-31T12:27:12;98850.16;;;26.48;51.18
50710;BME280;37033;49.994;21.992;2023-07-31T12:29:44;98854.26;;;26.72;50.29
50710;BME280;37033;49.994;21.992;2023-07-31T12:32:22;98847.62;;;26.74;49.93
50710;BME280;37033;49.994;21.992;2023-07-31T12:34:54;98845.24;;;26.69;49.45
50710;BME280;37033;49.994;21.992;2023-07-31T12:37:25;98842.02;;;26.57;49.35
50710;BME280;37033;49.994;21.992;2023-07-31T12:39:55;98843.80;;;26.55;49.50
50710;BME280;37033;49.994;21.992;2023-07-31T12:42:32;98838.34;;;26.59;48.98
50710;BME280;37033;49.994;21.992;2023-07-31T12:45:02;98834.83;;;26.62;48.86
50710;BME280;37033;49.994;21.992;2023-07-31T12:47:34;98826.80;;;26.73;49.36
50710;BME280;37033;49.994;21.992;2023-07-31T12:50:06;98822.81;;;26.91;48.47
50710;BME280;37033;49.994;21.992;2023-07-31T12:52:37;98826.41;;;26.91;47.84
50710;BME280;37033;49.994;21.992;2023-07-31T12:55:09;98829.95;;;26.93;47.41
50710;BME280;37033;49.994;21.992;2023-07-31T12:57:40;98834.77;;;26.91;47.44
50710;BME280;37033;49.994;21.992;2023-07-31T13:00:14;98830.92;;;26.87;46.59
50710;BME280;37033;49.994;21.992;2023-07-31T13:02:45;98836.77;;;26.78;47.07
50710;BME280;37033;49.994;21.992;2023-07-31T13:05:16;98834.23;;;26.71;47.93
50710;BME280;37033;49.994;21.992;2023-07-31T13:07:49;98834.58;;;26.63;47.67
50710;BME280;37033;49.994;21.992;2023-07-31T13:10:21;98835.88;;;26.41;48.03
50710;BME280;37033;49.994;21.992;2023-07-31T13:12:52;98831.40;;;26.20;47.96
50710;BME280;37033;49.994;21.992;2023-07-31T13:15:23;98829.04;;;26.03;48.43